Time;durP1;ratioP1;P1;durP2;ratioP2;P2;SDS_P1;SDS_P2;PMS_P1;PMS_P2;Temp;Humidity;BMP_temperature;BMP_pressure;BME280_temperature;BME280_humidity;BME280_pressure;Samples;Min_cycle;Max_cycle;Signal;HPM_P1;HPM_P2
2023/03/09 00:00:17;;;;;;;21.95;11.02;;;0.80;99.90;;;;;;6160286;23;20001;-93
2023/03/09 00:02:42;;;;;;;17.05;10.45;;;0.70;99.90;;;;;;6160266;23;19997;-93
2023/03/09 00:05:11;;;;;;;19.92;10.30;;;0.70;99.90;;;;;;6160476;23;20028;-93
2023/03/09 00:07:37;;;;;;;17.73;9.88;;;0.70;99.90;;;;;;6160600;23;20041;-94
2023/03/09 00:10:03;;;;;;;20.00;9.88;;;0.70;99.90;;;;;;6160826;23;20059;-94
2023/03/09 00:12:29;;;;;;;16.30;9.63;;;0.70;99.90;;;;;;6160193;23;20013;-94
2023/03/09 00:14:55;;;;;;;16.73;9.40;;;0.70;99.90;;;;;;6161251;23;20019;-95
2023/03/09 00:17:21;;;;;;;17.52;9.75;;;0.70;99.90;;;;;;6161045;23;20001;-93
2023/03/09 00:19:47;;;;;;;18.60;10.27;;;0.70;99.90;;;;;;6161996;23;20048;-94
2023/03/09 00:22:13;;;;;;;20.00;10.77;;;0.70;99.90;;;;;;6162514;23;20001;-93
2023/03/09 00:24:45;;;;;;;18.08;9.75;;;0.70;99.90;;;;;;6167433;23;20061;-92
2023/03/09 00:27:11;;;;;;;19.55;9.40;;;0.70;99.90;;;;;;6171484;23;20016;-94
2023/03/09 00:29:37;;;;;;;19.60;9.60;;;0.70;99.90;;;;;;6161485;23;20013;-95
2023/03/09 00:32:02;;;;;;;14.40;8.60;;;0.70;99.90;;;;;;6160746;23;20443;-92
2023/03/09 00:34:28;;;;;;;16.15;9.27;;;0.70;99.90;;;;;;6159653;23;20096;-92
2023/03/09 00:36:54;;;;;;;14.27;8.30;;;0.70;99.90;;;;;;6159723;23;20045;-92
2023/03/09 00:39:21;;;;;;;13.68;8.23;;;0.70;99.90;;;;;;6159861;23;20009;-93
2023/03/09 00:41:47;;;;;;;15.13;8.80;;;0.70;99.90;;;;;;6159975;23;20016;-93
2023/03/09 00:44:14;;;;;;;17.50;8.75;;;0.70;99.90;;;;;;6187023;23;20001;-94
2023/03/09 00:46:40;;;;;;;18.83;9.13;;;0.70;99.90;;;;;;6159711;23;20037;-92
2023/03/09 00:49:06;;;;;;;18.55;9.73;;;0.70;99.90;;;;;;6160087;23;20024;-92
2023/03/09 00:51:36;;;;;;;18.08;9.52;;;0.70;99.90;;;;;;6160095;23;20004;-93
2023/03/09 00:54:03;;;;;;;22.00;9.05;;;0.70;99.90;;;;;;6160266;23;20064;-93
2023/03/09 00:56:29;;;;;;;16.65;9.70;;;0.70;99.90;;;;;;6159920;23;20025;-93
2023/03/09 00:58:57;;;;;;;18.33;9.35;;;0.70;99.90;;;;;;6159915;23;20009;-93
2023/03/09 01:01:23;;;;;;;17.33;10.00;;;0.70;99.90;;;;;;6160323;23;20092;-92
2023/03/09 01:03:49;;;;;;;22.42;9.95;;;0.70;99.90;;;;;;6161613;23;20039;-93
2023/03/09 01:06:15;;;;;;;17.33;9.25;;;0.70;99.90;;;;;;6163351;23;20007;-94
2023/03/09 01:08:41;;;;;;;20.52;9.50;;;0.70;99.90;;;;;;6161836;23;20032;-93
2023/03/09 01:11:10;;;;;;;18.60;8.18;;;0.70;99.90;;;;;;6160256;23;20008;-94
2023/03/09 01:13:36;;;;;;;15.15;7.60;;;0.70;99.90;;;;;;6158816;23;20475;-93
2023/03/09 01:16:02;;;;;;;16.40;8.57;;;0.70;99.90;;;;;;6159881;23;20008;-94
2023/03/09 01:18:27;;;;;;;17.75;8.98;;;0.70;99.90;;;;;;6160430;23;20005;-93
2023/03/09 01:20:53;;;;;;;20.30;8.88;;;0.70;99.90;;;;;;6160731;23;20005;-93
2023/03/09 01:23:19;;;;;;;16.85;8.88;;;0.70;99.90;;;;;;6163120;23;20084;-95
2023/03/09 01:25:45;;;;;;;18.70;8.95;;;0.70;99.90;;;;;;6163123;23;20001;-94
2023/03/09 01:28:11;;;;;;;22.05;8.90;;;0.70;99.90;;;;;;6172099;23;20001;-93
2023/03/09 01:30:37;;;;;;;20.75;9.82;;;0.70;99.90;;;;;;6185563;23;20005;-92
2023/03/09 01:33:03;;;;;;;18.95;9.88;;;0.70;99.90;;;;;;6173903;23;20001;-92
2023/03/09 01:35:29;;;;;;;24.58;10.10;;;0.70;99.90;;;;;;6184336;23;20021;-93
2023/03/09 01:37:54;;;;;;;21.13;10.95;;;0.70;99.90;;;;;;6164222;23;20429;-95
2023/03/09 01:40:24;;;;;;;24.98;10.90;;;0.80;99.90;;;;;;6184304;23;20432;-94
2023/03/09 01:42:58;;;;;;;21.97;10.27;;;0.70;99.90;;;;;;6160668;23;20028;-93
2023/03/09 01:45:29;;;;;;;22.58;10.55;;;0.70;99.90;;;;;;6162092;23;20060;-94
2023/03/09 01:47:59;;;;;;;22.23;9.82;;;0.70;99.90;;;;;;6170708;23;20001;-94
2023/03/09 01:50:29;;;;;;;24.03;10.50;;;0.70;99.90;;;;;;6163129;23;20005;-93
2023/03/09 01:52:57;;;;;;;21.73;9.52;;;0.70;99.90;;;;;;6160687;23;20005;-92
2023/03/09 01:55:26;;;;;;;19.65;9.10;;;0.70;99.90;;;;;;6160873;23;20009;-94
2023/03/09 01:58:03;;;;;;;22.23;9.55;;;0.70;99.90;;;;;;6160704;23;20012;-92
2023/03/09 02:00:29;;;;;;;21.90;9.45;;;0.70;99.90;;;;;;6161333;23;20349;-95
2023/03/09 02:03:06;;;;;;;18.25;8.02;;;0.70;99.90;;;;;;6160322;23;20001;-94
2023/03/09 02:05:38;;;;;;;24.15;8.35;;;0.70;99.90;;;;;;6160683;23;20001;-94
2023/03/09 02:08:05;;;;;;;17.50;6.95;;;0.80;99.90;;;;;;6162194;23;20001;-94
2023/03/09 02:10:43;;;;;;;16.55;7.38;;;0.70;99.90;;;;;;6161741;23;20020;-95
2023/03/09 02:13:14;;;;;;;19.90;8.82;;;0.70;99.90;;;;;;6160804;23;20088;-93
2023/03/09 02:15:41;;;;;;;18.98;9.27;;;0.80;99.90;;;;;;6161021;23;20013;-92
2023/03/09 02:18:07;;;;;;;15.57;8.38;;;0.80;99.90;;;;;;6161309;23;20001;-94
2023/03/09 02:21:03;;;;;;;22.85;8.75;;;0.70;99.90;;;;;;6161329;23;20031;-95
2023/03/09 02:23:33;;;;;;;16.15;8.05;;;0.70;99.90;;;;;;6161460;23;20069;-95
2023/03/09 02:26:11;;;;;;;16.87;8.60;;;0.80;99.90;;;;;;6162139;23;20005;-94
2023/03/09 02:28:36;;;;;;;18.00;8.80;;;0.80;99.90;;;;;;6161901;23;20009;-94
2023/03/09 02:31:04;;;;;;;19.05;9.27;;;0.70;99.90;;;;;;6162502;23;20085;-93
2023/03/09 02:33:30;;;;;;;16.95;8.00;;;0.70;99.90;;;;;;6161058;23;20035;-94
2023/03/09 02:35:58;;;;;;;18.20;9.40;;;0.80;99.90;;;;;;6161488;23;20017;-93
2023/03/09 02:38:24;;;;;;;23.02;10.30;;;0.80;99.90;;;;;;6163578;23;20005;-94
2023/03/09 02:40:52;;;;;;;19.65;9.52;;;0.70;99.90;;;;;;6164269;23;20044;-93
2023/03/09 02:43:21;;;;;;;18.88;8.55;;;0.80;99.90;;;;;;6163493;23;20013;-95
2023/03/09 02:45:48;;;;;;;19.02;8.88;;;0.80;99.90;;;;;;6163040;23;20001;-95
2023/03/09 02:48:14;;;;;;;22.17;8.45;;;0.80;99.90;;;;;;6163712;23;20099;-94
2023/03/09 02:50:39;;;;;;;17.73;8.25;;;0.80;99.90;;;;;;6164432;23;20001;-95
2023/03/09 02:53:05;;;;;;;16.48;8.27;;;0.80;99.90;;;;;;6171226;23;20028;-94
2023/03/09 02:55:31;;;;;;;15.98;7.85;;;0.80;99.90;;;;;;6175674;23;20020;-94
2023/03/09 02:57:56;;;;;;;17.98;8.18;;;0.80;99.90;;;;;;6179099;23;20072;-94
2023/03/09 03:00:23;;;;;;;20.40;8.38;;;0.80;99.90;;;;;;6186178;23;20009;-90
2023/03/09 03:02:49;;;;;;;17.63;8.57;;;0.80;99.90;;;;;;6187974;23;19997;-91
2023/03/09 03:05:15;;;;;;;18.00;8.45;;;0.70;99.90;;;;;;6187431;23;20053;-91
2023/03/09 03:07:40;;;;;;;21.55;9.10;;;0.70;99.90;;;;;;6186126;23;20028;-93
2023/03/09 03:10:07;;;;;;;18.98;8.52;;;0.70;99.90;;;;;;6173702;23;20009;-93
2023/03/09 03:12:32;;;;;;;25.20;9.65;;;0.70;99.90;;;;;;6168105;23;20009;-94
2023/03/09 03:14:58;;;;;;;25.05;10.00;;;0.80;99.90;;;;;;6167845;23;20095;-94
2023/03/09 03:17:24;;;;;;;20.95;9.43;;;0.70;99.90;;;;;;6164754;23;20052;-95
2023/03/09 03:19:49;;;;;;;22.30;9.18;;;0.80;99.90;;;;;;6165158;23;20009;-95
2023/03/09 03:22:15;;;;;;;21.48;9.13;;;0.80;99.90;;;;;;6166011;23;20005;-94
2023/03/09 03:24:41;;;;;;;20.77;8.77;;;0.70;99.90;;;;;;6168140;23;20032;-94
2023/03/09 03:27:08;;;;;;;24.10;9.82;;;0.80;99.90;;;;;;6167235;23;20076;-94
2023/03/09 03:29:33;;;;;;;20.90;9.38;;;0.80;99.90;;;;;;6167542;23;20013;-94
2023/03/09 03:31:59;;;;;;;23.10;9.52;;;0.80;99.90;;;;;;6165532;23;20001;-93
2023/03/09 03:34:25;;;;;;;19.73;9.13;;;0.80;99.90;;;;;;6166387;23;20099;-94
2023/03/09 03:36:50;;;;;;;28.17;10.23;;;0.80;99.90;;;;;;6195007;23;20016;-93
2023/03/09 03:39:16;;;;;;;21.80;9.70;;;0.80;99.90;;;;;;6171697;23;20055;-95
2023/03/09 03:41:42;;;;;;;19.83;8.57;;;0.70;99.90;;;;;;6173936;23;20001;-94
2023/03/09 03:44:09;;;;;;;20.70;10.00;;;0.80;99.90;;;;;;6172974;23;20087;-94
2023/03/09 03:46:34;;;;;;;18.38;8.80;;;0.70;99.90;;;;;;6175572;23;19993;-94
2023/03/09 03:49:00;;;;;;;21.95;9.65;;;0.80;99.90;;;;;;6183646;23;19997;-93
2023/03/09 03:51:27;;;;;;;17.70;9.48;;;0.80;99.90;;;;;;6183998;23;20005;-93
2023/03/09 03:53:53;;;;;;;19.90;8.85;;;0.80;99.90;;;;;;6182788;23;20021;-92
2023/03/09 03:56:19;;;;;;;17.98;8.13;;;0.80;99.90;;;;;;6187010;23;20008;-93
2023/03/09 03:58:45;;;;;;;19.55;9.30;;;0.80;99.90;;;;;;6186046;23;20024;-93
2023/03/09 04:01:11;;;;;;;16.50;8.20;;;0.80;99.90;;;;;;6185245;23;20009;-93
2023/03/09 04:03:36;;;;;;;19.08;8.90;;;0.80;99.90;;;;;;6185861;23;20009;-92
2023/03/09 04:06:02;;;;;;;18.20;8.90;;;0.80;99.90;;;;;;6184984;23;20036;-93
2023/03/09 04:08:29;;;;;;;15.98;8.82;;;0.80;99.90;;;;;;6185125;23;20052;-92
2023/03/09 04:10:55;;;;;;;16.20;7.57;;;0.80;99.90;;;;;;6185548;23;20032;-94
2023/03/09 04:13:21;;;;;;;18.38;9.07;;;0.80;99.90;;;;;;6180734;23;20009;-93
2023/03/09 04:15:47;;;;;;;13.85;8.13;;;0.90;99.90;;;;;;6176694;23;20009;-95
2023/03/09 04:18:13;;;;;;;16.33;8.50;;;0.80;99.90;;;;;;6177222;23;20007;-95
2023/03/09 04:20:40;;;;;;;15.18;8.70;;;0.80;99.90;;;;;;6178122;23;20001;-93
2023/03/09 04:23:06;;;;;;;20.38;9.00;;;0.90;99.90;;;;;;6174538;23;20058;-95
2023/03/09 04:25:31;;;;;;;19.08;9.00;;;0.80;99.90;;;;;;6171872;23;20025;-96
2023/03/09 04:27:57;;;;;;;19.10;8.38;;;0.80;99.90;;;;;;6174567;23;20012;-94
2023/03/09 04:30:23;;;;;;;15.88;8.63;;;0.80;99.90;;;;;;6175685;23;20005;-95
2023/03/09 04:32:51;;;;;;;22.33;9.68;;;0.80;99.90;;;;;;6175675;23;20001;-94
2023/03/09 04:35:17;;;;;;;25.00;10.75;;;0.80;99.90;;;;;;6178774;23;20021;-93
2023/03/09 04:37:45;;;;;;;22.27;10.07;;;0.80;99.90;;;;;;6179134;23;20012;-94
2023/03/09 04:40:12;;;;;;;20.88;10.93;;;0.80;99.90;;;;;;6178095;23;20065;-94
2023/03/09 04:42:38;;;;;;;22.95;10.23;;;0.80;99.90;;;;;;6202182;23;20061;-93
2023/03/09 04:45:04;;;;;;;21.90;10.15;;;0.80;99.90;;;;;;6172596;23;20001;-95
2023/03/09 04:47:30;;;;;;;22.75;10.88;;;0.80;99.90;;;;;;6176083;23;20009;-93
2023/03/09 04:49:56;;;;;;;26.10;11.15;;;0.80;99.90;;;;;;6185426;23;20072;-92
2023/03/09 04:52:22;;;;;;;23.33;11.48;;;0.80;99.90;;;;;;6187040;23;20008;-91
2023/03/09 04:54:48;;;;;;;24.13;11.10;;;0.80;99.90;;;;;;6185738;23;20008;-94
2023/03/09 04:57:14;;;;;;;21.80;11.32;;;0.80;99.90;;;;;;6175896;23;20008;-95
2023/03/09 04:59:40;;;;;;;29.98;12.10;;;0.80;99.90;;;;;;6201212;23;20140;-94
2023/03/09 05:02:06;;;;;;;25.08;12.52;;;0.80;99.90;;;;;;6176269;23;20088;-95
2023/03/09 05:04:32;;;;;;;28.52;12.43;;;0.80;99.90;;;;;;6179914;23;20020;-95
2023/03/09 05:06:58;;;;;;;29.52;13.88;;;0.80;99.90;;;;;;6181454;23;20084;-96
2023/03/09 05:09:24;;;;;;;25.58;12.85;;;0.80;99.90;;;;;;6183199;23;20009;-93
2023/03/09 05:11:51;;;;;;;28.88;12.82;;;0.80;99.90;;;;;;6181521;23;20024;-94
2023/03/09 05:14:18;;;;;;;28.27;13.32;;;0.80;99.90;;;;;;6184526;23;20005;-91
2023/03/09 05:16:45;;;;;;;24.83;11.93;;;0.80;99.90;;;;;;6169833;23;20433;-91
2023/03/09 05:19:11;;;;;;;23.92;11.50;;;0.80;99.90;;;;;;6166537;23;20055;-94
2023/03/09 05:21:37;;;;;;;21.88;10.95;;;0.80;99.90;;;;;;6165502;23;20005;-95
2023/03/09 05:24:04;;;;;;;24.98;12.35;;;0.80;99.90;;;;;;6166730;23;20059;-94
2023/03/09 05:26:30;;;;;;;25.95;11.57;;;0.80;99.90;;;;;;6164903;23;20005;-96
2023/03/09 05:28:55;;;;;;;23.42;10.38;;;0.80;99.90;;;;;;6164311;23;20460;-96
2023/03/09 05:31:21;;;;;;;22.38;10.73;;;0.80;99.90;;;;;;6189252;23;20005;-94
2023/03/09 05:33:47;;;;;;;24.83;11.27;;;0.80;99.90;;;;;;6162852;23;20009;-95
2023/03/09 05:36:22;;;;;;;21.15;10.38;;;0.80;99.90;;;;;;6167384;23;20019;-95
2023/03/09 05:38:49;;;;;;;19.15;10.25;;;0.80;99.90;;;;;;6166588;23;20002;-96
2023/03/09 05:41:15;;;;;;;20.17;10.07;;;0.80;99.90;;;;;;6165766;23;20041;-93
2023/03/09 05:43:44;;;;;;;24.30;11.43;;;0.80;99.90;;;;;;6165562;23;20040;-95
2023/03/09 05:46:11;;;;;;;18.73;9.93;;;0.80;99.90;;;;;;6164898;23;20017;-94
2023/03/09 05:48:37;;;;;;;23.02;10.55;;;0.80;99.90;;;;;;6164398;23;20005;-94
2023/03/09 05:51:04;;;;;;;19.40;10.02;;;0.80;99.90;;;;;;6163443;23;20421;-94
2023/03/09 05:53:31;;;;;;;20.88;10.90;;;0.80;99.90;;;;;;6164881;23;20013;-95
2023/03/09 05:55:57;;;;;;;22.05;11.68;;;0.80;99.90;;;;;;6164502;23;20005;-94
2023/03/09 05:58:23;;;;;;;22.83;12.35;;;0.80;99.90;;;;;;6164666;23;20031;-95
2023/03/09 06:00:48;;;;;;;22.52;11.73;;;0.80;99.90;;;;;;6165168;23;20002;-93
2023/03/09 06:03:14;;;;;;;22.65;12.10;;;0.70;99.90;;;;;;6164823;23;20072;-94
2023/03/09 06:05:40;;;;;;;25.85;11.45;;;0.70;99.90;;;;;;6192022;23;20005;-93
2023/03/09 06:08:05;;;;;;;19.70;11.27;;;0.70;99.90;;;;;;6169870;23;20083;-93
2023/03/09 06:10:31;;;;;;;25.55;12.77;;;0.70;99.90;;;;;;6164211;23;20001;-94
2023/03/09 06:12:57;;;;;;;18.98;10.02;;;0.70;99.90;;;;;;6173508;23;20012;-95
2023/03/09 06:15:22;;;;;;;23.25;12.25;;;0.70;99.90;;;;;;6162190;23;20009;-93
2023/03/09 06:17:48;;;;;;;21.55;11.50;;;0.80;99.90;;;;;;6161886;23;20005;-93
2023/03/09 06:20:14;;;;;;;21.83;11.43;;;0.80;99.90;;;;;;6162681;23;20044;-93
2023/03/09 06:22:40;;;;;;;19.58;10.68;;;0.80;99.90;;;;;;6187349;23;20013;-94
2023/03/09 06:25:07;;;;;;;20.20;10.70;;;0.90;99.90;;;;;;6168308;23;20359;-94
2023/03/09 06:27:35;;;;;;;24.17;12.80;;;0.90;99.90;;;;;;6185303;23;20005;-93
2023/03/09 06:30:00;;;;;;;19.48;11.10;;;0.90;99.90;;;;;;6178051;23;20013;-93
2023/03/09 06:32:26;;;;;;;21.45;12.13;;;0.90;99.90;;;;;;6171588;23;20005;-93
2023/03/09 06:34:51;;;;;;;23.20;12.35;;;0.90;99.90;;;;;;6164096;23;20039;-94
2023/03/09 06:37:17;;;;;;;20.42;10.07;;;0.90;99.90;;;;;;6164192;23;20013;-96
2023/03/09 06:39:43;;;;;;;20.90;11.32;;;0.90;99.90;;;;;;6192944;23;20013;-96
2023/03/09 06:42:08;;;;;;;22.40;11.13;;;0.90;99.90;;;;;;6173272;23;20063;-96
2023/03/09 06:44:34;;;;;;;20.25;10.50;;;0.90;99.90;;;;;;6164050;23;20075;-93
2023/03/09 06:47:00;;;;;;;21.67;11.38;;;0.80;99.90;;;;;;6163431;23;20562;-94
2023/03/09 06:49:26;;;;;;;27.02;11.45;;;0.80;99.90;;;;;;6163591;23;20032;-91
2023/03/09 06:51:51;;;;;;;21.30;10.00;;;0.80;99.90;;;;;;6162682;23;20088;-95
2023/03/09 06:54:17;;;;;;;21.02;10.77;;;0.80;99.90;;;;;;6187613;23;20540;-93
2023/03/09 06:56:43;;;;;;;21.33;11.35;;;0.80;99.90;;;;;;6163271;23;20080;-95
2023/03/09 06:59:09;;;;;;;22.35;11.55;;;0.80;99.90;;;;;;6163073;23;20318;-92
2023/03/09 07:01:34;;;;;;;24.55;11.45;;;0.80;99.90;;;;;;6163085;23;20076;-94
2023/03/09 07:04:01;;;;;;;26.13;12.13;;;0.80;99.90;;;;;;6162377;23;20432;-93
2023/03/09 07:06:26;;;;;;;21.88;11.52;;;0.80;99.90;;;;;;6162943;23;20080;-93
2023/03/09 07:08:52;;;;;;;21.38;10.45;;;0.80;99.90;;;;;;6161433;23;20012;-93
2023/03/09 07:11:19;;;;;;;22.33;11.35;;;0.80;99.90;;;;;;6186684;23;20009;-95
2023/03/09 07:13:45;;;;;;;21.85;11.40;;;0.80;99.90;;;;;;6162189;23;20013;-95
2023/03/09 07:16:11;;;;;;;22.90;11.25;;;0.80;99.90;;;;;;6162043;23;20012;-94
2023/03/09 07:18:37;;;;;;;26.27;12.60;;;0.80;99.90;;;;;;6161141;23;20079;-94
2023/03/09 07:21:03;;;;;;;27.67;13.15;;;0.80;99.90;;;;;;6161510;23;20019;-94
2023/03/09 07:23:31;;;;;;;24.05;12.13;;;0.80;99.90;;;;;;6186591;23;20029;-92
2023/03/09 07:26:02;;;;;;;25.88;12.45;;;0.80;99.90;;;;;;6161160;23;20428;-96
2023/03/09 07:28:28;;;;;;;27.48;12.85;;;0.80;99.90;;;;;;6161473;23;20036;-93
2023/03/09 07:30:53;;;;;;;26.67;13.15;;;0.80;99.90;;;;;;6155742;23;20055;-94
2023/03/09 07:33:19;;;;;;;24.65;12.25;;;0.80;99.90;;;;;;6160475;23;20008;-95
2023/03/09 07:35:45;;;;;;;28.33;14.38;;;0.80;99.90;;;;;;6160649;23;20017;-94
2023/03/09 07:38:11;;;;;;;30.38;14.35;;;0.90;99.90;;;;;;6160753;23;20005;-94
2023/03/09 07:40:36;;;;;;;30.73;15.18;;;0.90;99.90;;;;;;6185331;23;20017;-93
2023/03/09 07:43:02;;;;;;;30.00;15.73;;;0.90;99.90;;;;;;6160391;23;20071;-92
2023/03/09 07:45:28;;;;;;;27.27;13.60;;;0.90;99.90;;;;;;6159681;23;20096;-92
2023/03/09 07:47:54;;;;;;;29.80;15.13;;;0.90;99.90;;;;;;6158757;23;20441;-92
2023/03/09 07:50:20;;;;;;;27.40;14.63;;;0.90;99.90;;;;;;6160425;23;20088;-95
2023/03/09 07:52:46;;;;;;;29.70;14.50;;;0.90;99.90;;;;;;6160902;23;20005;-90
2023/03/09 07:55:12;;;;;;;24.40;13.60;;;0.90;99.90;;;;;;6186182;23;20025;-92
2023/03/09 07:57:39;;;;;;;29.25;14.30;;;0.90;99.90;;;;;;6161066;23;20005;-93
2023/03/09 08:00:11;;;;;;;25.58;14.00;;;0.90;99.90;;;;;;6161556;23;20012;-93
2023/03/09 08:02:40;;;;;;;25.88;13.70;;;0.90;99.90;;;;;;6162066;23;20001;-92
2023/03/09 08:05:10;;;;;;;27.75;13.57;;;0.90;99.90;;;;;;6162485;23;20001;-91
2023/03/09 08:07:36;;;;;;;23.35;12.35;;;0.90;99.90;;;;;;6163500;23;20005;-92
2023/03/09 08:10:04;;;;;;;22.00;11.98;;;0.90;99.90;;;;;;6188837;23;20071;-91
2023/03/09 08:12:29;;;;;;;19.40;10.68;;;1.00;99.90;;;;;;6192775;23;20036;-91
2023/03/09 08:14:55;;;;;;;18.33;10.93;;;1.00;99.90;;;;;;6182323;23;20377;-92
2023/03/09 08:17:21;;;;;;;19.80;10.00;;;1.00;99.90;;;;;;6184264;23;20013;-92
2023/03/09 08:19:47;;;;;;;17.92;9.98;;;1.00;99.90;;;;;;6211831;23;20012;-92
2023/03/09 08:22:12;;;;;;;15.45;9.23;;;1.00;99.90;;;;;;6132467;23;20005;-90
2023/03/09 08:24:38;;;;;;;17.40;10.15;;;1.00;99.90;;;;;;6181184;23;20429;-93
2023/03/09 08:27:04;;;;;;;19.75;10.68;;;1.10;99.90;;;;;;6163571;23;20051;-93
2023/03/09 08:29:30;;;;;;;17.05;9.48;;;1.10;99.90;;;;;;6188870;23;20625;-94
2023/03/09 08:31:57;;;;;;;18.63;10.02;;;1.10;99.90;;;;;;6163138;23;20005;-91
2023/03/09 08:34:23;;;;;;;16.30;9.93;;;1.10;99.90;;;;;;6167248;23;20040;-92
2023/03/09 08:36:48;;;;;;;18.48;9.88;;;1.10;99.90;;;;;;6170717;23;20101;-92
2023/03/09 08:39:14;;;;;;;13.55;8.35;;;1.20;99.90;;;;;;6171372;23;20464;-90
2023/03/09 08:41:40;;;;;;;13.95;8.23;;;1.20;99.90;;;;;;6170448;23;20021;-95
2023/03/09 08:44:06;;;;;;;12.90;7.95;;;1.20;99.90;;;;;;6168527;23;20013;-92
2023/03/09 08:46:32;;;;;;;12.77;8.25;;;1.30;99.90;;;;;;6167948;23;20005;-90
2023/03/09 08:48:59;;;;;;;11.30;6.82;;;1.20;99.90;;;;;;6142503;23;20084;-92
2023/03/09 08:51:28;;;;;;;10.50;6.63;;;1.20;99.90;;;;;;6164761;23;20008;-90
2023/03/09 08:53:55;;;;;;;10.70;6.85;;;1.20;99.90;;;;;;6165907;23;20052;-89
2023/03/09 08:56:21;;;;;;;10.60;6.35;;;1.20;99.90;;;;;;6171203;23;20005;-90
2023/03/09 08:58:47;;;;;;;9.45;5.72;;;1.20;99.90;;;;;;6180637;23;19989;-91
2023/03/09 09:01:12;;;;;;;9.80;5.85;;;1.20;99.90;;;;;;6181142;23;20005;-93
2023/03/09 09:03:38;;;;;;;9.77;5.75;;;1.20;99.90;;;;;;6163783;23;20464;-92
2023/03/09 09:06:10;;;;;;;9.65;6.40;;;1.20;99.90;;;;;;6161881;23;20080;-91
2023/03/09 09:08:45;;;;;;;12.60;6.38;;;1.20;99.90;;;;;;6162821;23;20016;-91
2023/03/09 09:11:14;;;;;;;11.55;6.13;;;1.20;99.90;;;;;;6161679;23;20009;-90
2023/03/09 09:13:40;;;;;;;8.25;5.45;;;1.20;99.90;;;;;;6159403;23;20012;-92
2023/03/09 09:16:08;;;;;;;9.75;5.47;;;1.20;99.90;;;;;;6165122;23;20004;-93
2023/03/09 09:18:36;;;;;;;10.77;5.57;;;1.30;99.90;;;;;;6160996;23;20088;-91
2023/03/09 09:21:07;;;;;;;6.72;4.28;;;1.30;99.90;;;;;;6162849;23;20009;-91
2023/03/09 09:23:37;;;;;;;7.80;4.80;;;1.30;99.90;;;;;;6186893;23;20028;-91
2023/03/09 09:26:04;;;;;;;8.73;5.28;;;1.30;99.90;;;;;;6162610;23;20001;-91
2023/03/09 09:28:30;;;;;;;8.50;5.30;;;1.30;99.90;;;;;;6162580;23;20009;-92
2023/03/09 09:30:58;;;;;;;8.23;5.20;;;1.40;99.90;;;;;;6162516;23;20005;-92
2023/03/09 09:33:26;;;;;;;8.20;5.18;;;1.40;99.90;;;;;;6160291;23;20013;-90
2023/03/09 09:36:05;;;;;;;8.88;5.47;;;1.40;99.90;;;;;;6161768;23;20035;-94
2023/03/09 09:38:33;;;;;;;11.35;6.63;;;1.50;99.90;;;;;;6171890;23;20008;-92
2023/03/09 09:41:04;;;;;;;10.40;7.10;;;1.50;99.90;;;;;;6166628;23;20473;-92
2023/03/09 09:43:31;;;;;;;9.85;6.03;;;1.50;99.90;;;;;;6170495;23;20016;-93
2023/03/09 09:45:59;;;;;;;8.38;5.82;;;1.60;99.90;;;;;;6166738;23;20001;-93
2023/03/09 09:48:26;;;;;;;9.27;5.60;;;1.50;99.90;;;;;;6166148;23;20008;-93
2023/03/09 09:51:07;;;;;;;8.10;5.50;;;1.50;99.90;;;;;;6168712;23;20001;-93
2023/03/09 09:53:56;;;;;;;7.65;4.15;;;1.60;99.90;;;;;;6167753;23;20013;-91
2023/03/09 09:56:38;;;;;;;5.07;3.67;;;1.60;99.90;;;;;;6162959;23;20074;-93
2023/03/09 09:59:12;;;;;;;5.00;2.83;;;1.60;99.90;;;;;;6162552;23;20084;-92
2023/03/09 10:01:49;;;;;;;3.75;2.50;;;1.70;99.90;;;;;;6163257;23;20001;-93
2023/03/09 10:04:20;;;;;;;7.32;2.60;;;1.60;99.90;;;;;;6161779;23;20027;-92
2023/03/09 10:06:48;;;;;;;4.28;2.30;;;1.70;99.90;;;;;;6158566;23;20001;-90
2023/03/09 10:09:26;;;;;;;6.80;3.08;;;1.70;99.90;;;;;;6161057;23;20070;-90
2023/03/09 10:12:02;;;;;;;4.35;2.92;;;1.70;99.90;;;;;;6160761;23;20009;-89
2023/03/09 10:14:31;;;;;;;5.53;3.35;;;1.80;99.90;;;;;;6160853;23;20009;-92
2023/03/09 10:17:24;;;;;;;4.63;3.10;;;1.80;99.90;;;;;;6161009;23;19997;-90
2023/03/09 10:19:51;;;;;;;5.80;3.10;;;1.80;99.90;;;;;;6161516;23;20060;-91
2023/03/09 10:22:23;;;;;;;5.15;3.38;;;1.80;99.90;;;;;;6189010;23;20004;-91
2023/03/09 10:24:51;;;;;;;6.18;3.60;;;1.80;99.90;;;;;;6159061;23;20053;-92
2023/03/09 10:27:29;;;;;;;4.85;3.22;;;1.80;99.90;;;;;;6185932;23;20009;-90
2023/03/09 10:30:17;;;;;;;3.97;2.58;;;1.80;99.90;;;;;;6159094;23;20016;-90
2023/03/09 10:33:00;;;;;;;4.65;2.50;;;1.80;99.90;;;;;;6159363;23;20031;-91
2023/03/09 10:35:39;;;;;;;4.05;2.13;;;1.80;99.90;;;;;;6159933;23;20037;-91
2023/03/09 10:38:11;;;;;;;3.13;2.00;;;1.90;99.90;;;;;;6160091;23;20001;-91
2023/03/09 10:40:46;;;;;;;2.72;2.20;;;1.80;99.90;;;;;;6166850;23;20001;-90
2023/03/09 10:43:30;;;;;;;3.67;2.42;;;1.90;99.90;;;;;;6165040;23;20504;-92
2023/03/09 10:46:21;;;;;;;3.88;2.50;;;1.90;99.90;;;;;;6159862;23;20019;-91
2023/03/09 10:48:49;;;;;;;4.07;2.53;;;1.90;99.90;;;;;;6161272;23;20013;-91
2023/03/09 10:51:24;;;;;;;3.35;2.60;;;2.00;99.90;;;;;;6158293;23;20009;-90
2023/03/09 10:53:51;;;;;;;4.00;2.20;;;2.10;99.90;;;;;;6158931;23;20017;-90
2023/03/09 10:56:27;;;;;;;4.30;2.58;;;2.10;99.90;;;;;;6160542;23;20012;-91
2023/03/09 10:59:07;;;;;;;4.07;2.60;;;2.10;99.90;;;;;;6159089;23;20356;-91
2023/03/09 11:01:58;;;;;;;4.75;2.90;;;2.20;99.90;;;;;;6159115;23;20001;-91
2023/03/09 11:04:29;;;;;;;3.85;2.80;;;2.20;99.90;;;;;;6159496;23;20058;-92
2023/03/09 11:07:17;;;;;;;3.92;2.63;;;2.10;99.90;;;;;;6158555;23;20345;-91
2023/03/09 11:09:42;;;;;;;5.68;2.70;;;2.20;99.90;;;;;;6159955;23;20005;-92
2023/03/09 11:12:29;;;;;;;5.65;3.10;;;2.10;99.90;;;;;;6158995;23;20005;-91
2023/03/09 11:15:01;;;;;;;4.57;2.80;;;2.10;99.90;;;;;;6158956;23;20021;-90
2023/03/09 11:17:33;;;;;;;4.07;2.80;;;2.10;99.90;;;;;;6159984;23;20037;-91
2023/03/09 11:20:23;;;;;;;3.60;2.60;;;2.00;99.90;;;;;;6159781;23;20064;-91
2023/03/09 11:23:01;;;;;;;3.22;2.50;;;2.10;99.90;;;;;;6159737;23;20032;-91
2023/03/09 11:25:47;;;;;;;6.05;3.10;;;2.10;99.90;;;;;;6159831;23;20009;-90
2023/03/09 11:28:12;;;;;;;3.88;2.70;;;2.10;99.90;;;;;;6160865;23;20004;-88
2023/03/09 11:30:39;;;;;;;3.70;2.67;;;2.10;99.90;;;;;;6165978;23;20016;-90
2023/03/09 11:33:11;;;;;;;3.72;2.70;;;2.10;99.90;;;;;;6167137;23;20028;-89
2023/03/09 11:35:37;;;;;;;3.13;2.45;;;2.20;99.90;;;;;;6159853;23;20021;-89
2023/03/09 11:38:11;;;;;;;3.95;2.70;;;2.20;99.90;;;;;;6159539;23;20100;-90
2023/03/09 11:40:40;;;;;;;2.65;2.38;;;2.30;99.90;;;;;;6159355;23;20036;-90
2023/03/09 11:43:27;;;;;;;3.70;2.80;;;2.40;99.90;;;;;;6185465;23;20005;-89
2023/03/09 11:45:59;;;;;;;4.57;2.83;;;2.40;99.90;;;;;;6161176;23;20009;-90
2023/03/09 11:48:45;;;;;;;2.97;2.30;;;2.40;99.90;;;;;;6160149;23;20088;-90
2023/03/09 11:51:16;;;;;;;3.45;2.75;;;2.50;99.90;;;;;;6161447;23;20005;-90
2023/03/09 11:54:16;;;;;;;3.40;2.90;;;2.40;99.90;;;;;;6160114;23;20013;-90
2023/03/09 11:56:45;;;;;;;3.58;2.67;;;2.40;99.90;;;;;;6158068;23;20008;-89
2023/03/09 12:06:42;;;;;;;3.50;2.80;;;2.40;99.90;;;;;;6216542;22;20407;-92
2023/03/09 12:09:36;;;;;;;4.60;2.78;;;2.40;99.90;;;;;;6185879;23;20090;-90
2023/03/09 12:12:26;;;;;;;4.18;2.50;;;2.40;99.90;;;;;;6174883;23;20001;-91
2023/03/09 12:14:58;;;;;;;3.35;2.88;;;2.50;99.90;;;;;;6208352;23;20423;-90
2023/03/09 12:17:35;;;;;;;3.42;2.42;;;2.50;99.90;;;;;;6224313;23;20007;-93
2023/03/09 12:20:01;;;;;;;4.18;3.33;;;2.50;99.90;;;;;;6230690;23;20004;-92
2023/03/09 12:22:36;;;;;;;4.57;2.83;;;2.60;99.90;;;;;;6225357;23;20004;-94
2023/03/09 12:25:15;;;;;;;4.40;2.60;;;2.70;99.90;;;;;;6220347;23;20051;-91
2023/03/09 12:27:52;;;;;;;4.70;3.00;;;2.70;99.90;;;;;;6220214;23;20073;-89
2023/03/09 12:30:24;;;;;;;4.35;2.90;;;2.70;99.90;;;;;;6219818;23;20134;-90
2023/03/09 12:32:50;;;;;;;5.57;3.50;;;2.80;99.90;;;;;;6246491;23;20004;-91
2023/03/09 12:35:22;;;;;;;3.72;2.78;;;2.80;99.90;;;;;;6220010;23;20351;-90
2023/03/09 12:38:00;;;;;;;4.07;3.35;;;2.70;99.90;;;;;;6220440;23;20008;-90
2023/03/09 12:40:26;;;;;;;3.75;2.78;;;2.70;99.90;;;;;;6219826;23;20012;-90
2023/03/09 12:43:16;;;;;;;5.43;3.30;;;2.70;99.90;;;;;;6219910;23;20370;-92
2023/03/09 12:45:43;;;;;;;4.57;2.90;;;2.70;99.90;;;;;;6219874;23;20087;-91
2023/03/09 12:48:26;;;;;;;3.17;2.55;;;2.60;99.90;;;;;;6220573;23;20000;-94
2023/03/09 12:51:11;;;;;;;4.20;2.65;;;2.70;99.90;;;;;;6220043;23;20138;-92
2023/03/09 12:54:17;;;;;;;4.25;2.70;;;2.70;99.90;;;;;;6220340;23;20294;-92
2023/03/09 12:56:42;;;;;;;4.05;2.70;;;2.60;99.90;;;;;;6220139;23;20020;-91
2023/03/09 12:59:09;;;;;;;5.22;2.83;;;2.50;99.90;;;;;;6227638;23;20005;-90
2023/03/09 13:01:36;;;;;;;4.75;3.45;;;2.50;99.90;;;;;;6228632;23;20001;-93